Kezdőlap
METAR-TAF:

METAR-TAF

Repülőterek :

Whale Cove, Nunavut, Kanada

földrajzi szélesség: 62-14N, földrajzi hosszúság: 092-36W, magasság: 20 m

Jelenlegi meteorológiai megfigyelések

A jelentés 2 órával és 56 perccel ezelõtt készült, 23:00 UTC
Déli szél 23 kt
Hőmérséklet -15°C
Páratartalom 85%
Légköri nyomás 1015 hPa
Látótávolság: 0.8 km
Borult 600 lábon
enyhe havazás, hófúvás

METAR: CYXN 282300Z 18023KT 1/2SM -SN BLSN OVC006 M15/M17 A2996 RMK ST8 SSS AFT 15 UTC 0.4MM/LAST STFD OBS/NXT 291300Z PRESFR SLP148

Idő: 19:56 (01:56 UTC)


TAF: hiányzik

Meteorológiai megfigyelések és előrejelzések több, mint 4000 repülőtéren (METAR és TAF jelentéseket).

A térképen piros és sárga pontok jelzik az elérhető meteorológiai állomásokat.

Mozgassa az egeret a pont fölött, hogy megjelenjen az állomás neve.

Azután kattintson az időjárási megfigyelések és előrejelzések megtekintéséhez.

A térkép megváltoztatása: kattintson a fekete keresztel jelölt zöld gombra ráközelítéshez, a vonallal jelölt zöld gombra távolításhoz, vagy a zöld nyilakra a szomszédos térképek eléréséhez.


METAR-TAF: